Brouillette, Louisiana
Current Conditions -  °F | °C
As of 9:53 PM on Sunday 25 Jan 2015 (Local Time) from KESF Reporting Station
Clear Clear  
Wind Chill: 55°   Ceiling: Unl
Heat Index: 55°   Visibility: 10mi
Dew Point: 30°   Wind: 8mph
Humidity: 38%   Direction: 310°NW
Pressure: 30.02"   Gusts: NA
Location:  31.175°N, 91.9985°W
Report Text: KESF 260353Z AUTO 31007KT 10SM CLR 13/M01 A3002 RMK AO2 SLP163 T01281011
Loading
Personal Weather Stations






























Interactive Weather Map New forecast layout! Learn more

10-Day Weather Forecast

Advertisements
Track Severe Weather on mobile